createdAt,value
2022-10-08T00:01:10.690Z,14.62
2022-10-08T00:03:40.905Z,14.59
2022-10-08T00:06:08.903Z,14.40
2022-10-08T00:08:37.587Z,14.57
2022-10-08T00:11:09.710Z,14.44
2022-10-08T00:13:42.616Z,14.51
2022-10-08T00:16:23.247Z,14.44
2022-10-08T00:18:51.994Z,14.54
2022-10-08T00:21:25.083Z,14.44
2022-10-08T00:23:53.185Z,14.56
2022-10-08T00:26:24.359Z,14.55
2022-10-08T00:28:53.875Z,14.47
2022-10-08T00:31:29.588Z,14.38
2022-10-08T00:33:57.933Z,14.45
2022-10-08T00:36:26.515Z,14.26
2022-10-08T00:39:01.158Z,14.26
2022-10-08T00:41:30.363Z,14.35
2022-10-08T00:43:59.479Z,14.28
2022-10-08T00:46:30.990Z,14.03
2022-10-08T00:49:11.641Z,14.00
2022-10-08T00:51:49.839Z,14.07
2022-10-08T00:54:19.405Z,14.07
2022-10-08T00:56:51.248Z,14.21
2022-10-08T00:59:18.120Z,14.20
2022-10-08T01:01:44.884Z,14.26
2022-10-08T01:04:13.704Z,14.15
2022-10-08T01:06:40.235Z,14.25
2022-10-08T01:09:18.827Z,14.26
2022-10-08T01:12:06.031Z,14.11
2022-10-08T01:14:47.576Z,13.91
2022-10-08T01:17:23.257Z,14.03
2022-10-08T01:20:01.284Z,14.08
2022-10-08T01:22:29.897Z,14.16
2022-10-08T01:25:37.758Z,13.97
2022-10-08T01:28:17.813Z,13.55
2022-10-08T01:31:07.056Z,13.51
2022-10-08T01:33:43.057Z,13.66
2022-10-08T01:36:13.131Z,13.61
2022-10-08T01:38:44.902Z,13.74
2022-10-08T01:41:13.700Z,13.81
2022-10-08T01:43:46.239Z,13.87
2022-10-08T01:46:32.799Z,13.70
2022-10-08T01:49:07.546Z,13.37
2022-10-08T01:51:42.221Z,13.24
2022-10-08T01:54:13.721Z,13.59
2022-10-08T01:56:43.345Z,13.83
2022-10-08T01:59:19.186Z,13.89
2022-10-08T02:02:06.829Z,13.85
2022-10-08T02:04:33.868Z,13.70
2022-10-08T02:07:08.363Z,13.60
2022-10-08T02:09:41.362Z,13.26
2022-10-08T02:12:09.446Z,12.97
2022-10-08T02:14:40.253Z,12.84
2022-10-08T02:17:52.220Z,12.77
2022-10-08T02:20:21.322Z,12.91
2022-10-08T02:23:14.147Z,13.32
2022-10-08T02:25:49.412Z,13.45
2022-10-08T02:28:16.043Z,13.53
2022-10-08T02:31:10.623Z,13.52
2022-10-08T02:33:44.499Z,13.30
2022-10-08T02:36:14.768Z,13.21
2022-10-08T02:38:54.539Z,12.68
2022-10-08T02:41:28.755Z,12.93
2022-10-08T02:43:59.686Z,13.23
2022-10-08T02:46:30.276Z,13.40
2022-10-08T02:49:03.067Z,13.44
2022-10-08T02:51:32.035Z,13.55
2022-10-08T02:53:59.562Z,13.40
2022-10-08T02:56:38.933Z,13.22
2022-10-08T02:59:06.297Z,13.25
2022-10-08T03:01:44.190Z,13.31
2022-10-08T03:04:28.574Z,13.38
2022-10-08T03:06:57.314Z,13.28
2022-10-08T03:09:26.206Z,13.38
2022-10-08T03:11:53.947Z,13.47
2022-10-08T03:14:22.438Z,13.45
2022-10-08T03:16:49.249Z,13.14
2022-10-08T03:19:18.010Z,13.15
2022-10-08T03:21:47.176Z,13.13
2022-10-08T03:24:15.464Z,13.08
2022-10-08T03:26:42.701Z,13.02
2022-10-08T03:29:09.462Z,13.03
2022-10-08T03:31:36.590Z,13.02
2022-10-08T03:34:03.528Z,13.05
2022-10-08T03:36:30.219Z,13.15
2022-10-08T03:38:57.570Z,13.27
2022-10-08T03:41:24.181Z,13.22
2022-10-08T03:43:50.800Z,13.01
2022-10-08T03:46:17.703Z,13.14
2022-10-08T03:48:49.200Z,13.20
2022-10-08T03:51:16.948Z,13.11
2022-10-08T03:53:44.633Z,13.26
2022-10-08T03:56:17.614Z,13.21
2022-10-08T03:58:44.374Z,13.25
2022-10-08T04:01:14.825Z,13.30
2022-10-08T04:03:41.822Z,13.18
2022-10-08T04:06:09.055Z,13.11
2022-10-08T04:08:44.513Z,13.21
2022-10-08T04:14:03.336Z,13.14
2022-10-08T04:16:30.011Z,12.89
2022-10-08T04:18:56.852Z,12.95
2022-10-08T04:21:23.492Z,13.04
2022-10-08T04:23:50.254Z,13.16
2022-10-08T04:26:17.453Z,13.09
2022-10-08T04:28:45.136Z,13.20
2022-10-08T04:31:23.371Z,13.05
2022-10-08T04:33:51.723Z,12.74
2022-10-08T04:36:21.165Z,12.71
2022-10-08T04:38:48.314Z,12.42
2022-10-08T04:41:18.858Z,12.31
2022-10-08T04:43:46.574Z,12.35
2022-10-08T04:46:15.606Z,12.63
2022-10-08T04:48:47.500Z,12.73
2022-10-08T04:51:16.917Z,12.88
2022-10-08T04:53:44.123Z,12.99
2022-10-08T04:56:20.116Z,12.92
2022-10-08T04:58:47.487Z,13.18
2022-10-08T05:01:17.495Z,13.03
2022-10-08T05:03:47.616Z,13.19
2022-10-08T05:06:16.560Z,13.20
2022-10-08T05:08:44.430Z,12.93
2022-10-08T05:11:11.968Z,13.15
2022-10-08T05:13:38.964Z,13.23
2022-10-08T05:16:11.505Z,13.19
2022-10-08T05:18:39.835Z,13.24
2022-10-08T05:21:14.604Z,12.97
2022-10-08T05:23:44.877Z,13.04
2022-10-08T05:26:46.225Z,13.16
2022-10-08T05:29:11.743Z,13.27
2022-10-08T05:31:38.872Z,13.27
2022-10-08T05:34:05.896Z,13.33
2022-10-08T05:36:34.535Z,13.41
2022-10-08T05:39:03.443Z,13.44
2022-10-08T05:41:32.382Z,13.55
2022-10-08T05:44:02.007Z,13.54
2022-10-08T05:46:31.162Z,13.51
2022-10-08T05:49:00.779Z,13.60
2022-10-08T05:51:28.371Z,13.54
2022-10-08T05:53:59.560Z,13.41
2022-10-08T05:56:27.476Z,13.57
2022-10-08T05:58:54.862Z,13.62
2022-10-08T06:01:24.446Z,13.67
2022-10-08T06:03:52.854Z,13.72
2022-10-08T06:06:20.446Z,13.70
2022-10-08T06:08:47.485Z,13.81
2022-10-08T06:11:14.282Z,13.88
2022-10-08T06:13:40.920Z,13.99
2022-10-08T06:16:10.207Z,14.05
2022-10-08T06:18:40.038Z,14.07
2022-10-08T06:21:09.137Z,14.14
2022-10-08T06:23:36.433Z,14.18
2022-10-08T06:26:09.627Z,14.30
2022-10-08T06:28:38.077Z,14.25
2022-10-08T06:31:06.148Z,14.21
2022-10-08T06:33:33.440Z,14.36
2022-10-08T06:36:19.342Z,14.47
2022-10-08T06:38:53.769Z,14.53
2022-10-08T06:41:20.991Z,14.59
2022-10-08T06:43:47.882Z,14.25
2022-10-08T06:46:16.168Z,14.35
2022-10-08T06:48:43.151Z,14.25
2022-10-08T06:51:15.179Z,14.08
2022-10-08T06:53:43.187Z,14.70
2022-10-08T06:56:14.523Z,14.48
2022-10-08T06:58:42.500Z,14.56
2022-10-08T07:01:16.953Z,14.83
2022-10-08T07:03:44.029Z,15.17
2022-10-08T07:06:12.603Z,15.11
2022-10-08T07:08:39.596Z,14.69
2022-10-08T07:11:07.036Z,14.89
2022-10-08T07:13:34.505Z,15.15
2022-10-08T07:16:11.597Z,14.71
2022-10-08T07:18:39.744Z,14.95
2022-10-08T07:21:08.145Z,15.14
2022-10-08T07:23:34.973Z,15.40
2022-10-08T07:26:19.011Z,15.13
2022-10-08T07:28:51.740Z,15.33
2022-10-08T07:31:20.640Z,15.74
2022-10-08T07:33:47.894Z,15.61
2022-10-08T07:36:18.056Z,15.53
2022-10-08T07:38:45.358Z,15.65
2022-10-08T07:41:13.019Z,15.62
2022-10-08T07:43:41.358Z,15.76
2022-10-08T07:46:12.287Z,15.93
2022-10-08T07:48:39.457Z,16.17
2022-10-08T07:51:09.950Z,15.74
2022-10-08T07:53:37.081Z,15.47
2022-10-08T07:56:05.394Z,15.99
2022-10-08T07:58:32.314Z,16.35
2022-10-08T08:01:00.807Z,16.25
2022-10-08T08:03:27.469Z,16.04
2022-10-08T08:05:54.482Z,16.00
2022-10-08T08:08:25.412Z,15.86
2022-10-08T08:10:59.907Z,16.43
2022-10-08T08:13:30.749Z,16.56
2022-10-08T08:16:02.328Z,16.50
2022-10-08T08:18:30.860Z,16.47
2022-10-08T08:20:59.213Z,16.72
2022-10-08T08:23:30.488Z,16.78
2022-10-08T08:26:01.060Z,16.95
2022-10-08T08:28:28.836Z,16.97
2022-10-08T08:31:06.623Z,17.12
2022-10-08T08:33:33.184Z,17.43
2022-10-08T08:35:59.773Z,17.48
2022-10-08T08:38:26.329Z,17.60
2022-10-08T08:40:57.124Z,17.58
2022-10-08T08:43:25.330Z,16.73
2022-10-08T08:45:52.008Z,17.39
2022-10-08T08:48:18.583Z,17.31
2022-10-08T08:50:48.908Z,17.16
2022-10-08T08:53:15.878Z,17.45
2022-10-08T08:55:45.603Z,16.98
2022-10-08T08:58:36.875Z,17.70
2022-10-08T09:01:09.160Z,17.81
2022-10-08T09:03:44.035Z,17.94
2022-10-08T09:06:14.572Z,17.73
2022-10-08T09:08:46.902Z,17.96
2022-10-08T09:11:18.563Z,18.22
2022-10-08T09:13:50.726Z,18.03
2022-10-08T09:16:18.257Z,17.97
2022-10-08T09:18:50.040Z,17.95
2022-10-08T09:21:17.546Z,18.01
2022-10-08T09:23:44.768Z,17.77
2022-10-08T09:26:19.742Z,17.91
2022-10-08T09:28:55.583Z,18.42
2022-10-08T09:31:30.189Z,18.22
2022-10-08T09:34:05.742Z,17.82
2022-10-08T09:36:40.655Z,18.41
2022-10-08T09:39:19.110Z,18.29
2022-10-08T09:41:47.418Z,18.34
2022-10-08T09:44:21.446Z,18.46
2022-10-08T09:46:53.796Z,18.53
2022-10-08T09:49:31.088Z,18.82
2022-10-08T09:52:02.059Z,18.02
2022-10-08T09:54:34.409Z,18.39
2022-10-08T09:57:01.935Z,18.65
2022-10-08T09:59:32.866Z,18.56
2022-10-08T10:01:59.575Z,18.91
2022-10-08T10:04:38.489Z,18.38
2022-10-08T10:07:06.027Z,18.23
2022-10-08T10:09:44.879Z,18.26
2022-10-08T10:12:29.816Z,18.61
2022-10-08T10:15:11.081Z,18.78
2022-10-08T10:18:02.370Z,18.34
2022-10-08T10:20:46.322Z,18.80
2022-10-08T10:23:25.687Z,19.03
2022-10-08T10:25:57.495Z,19.40
2022-10-08T10:28:41.425Z,18.35
2022-10-08T10:31:18.222Z,18.68
2022-10-08T10:34:01.739Z,18.93
2022-10-08T10:36:49.370Z,19.15
2022-10-08T10:39:42.711Z,19.34
2022-10-08T10:42:43.362Z,19.23
2022-10-08T10:45:23.465Z,19.26
2022-10-08T10:47:53.307Z,18.56
2022-10-08T10:50:29.845Z,19.17
2022-10-08T10:53:20.893Z,19.34
2022-10-08T10:56:04.098Z,19.55
2022-10-08T10:59:04.128Z,19.18
2022-10-08T11:01:49.349Z,19.46
2022-10-08T11:04:41.099Z,18.62
2022-10-08T11:07:13.763Z,18.75
2022-10-08T11:09:50.816Z,19.14
2022-10-08T11:12:51.059Z,19.32
2022-10-08T11:15:17.680Z,19.61
2022-10-08T11:17:46.914Z,19.53
2022-10-08T11:20:39.486Z,19.75
2022-10-08T11:23:19.604Z,19.67
2022-10-08T11:26:19.071Z,20.00
2022-10-08T11:29:01.073Z,20.02
2022-10-08T11:31:27.691Z,20.16
2022-10-08T11:33:56.407Z,19.68
2022-10-08T11:36:48.596Z,19.66
2022-10-08T11:39:25.814Z,20.11
2022-10-08T11:42:15.408Z,20.29
2022-10-08T11:44:42.205Z,20.16
2022-10-08T11:47:36.736Z,20.26
2022-10-08T11:50:05.650Z,20.26
2022-10-08T11:52:34.242Z,20.30
2022-10-08T11:55:02.155Z,20.39
2022-10-08T11:58:02.932Z,20.24
2022-10-08T12:00:38.158Z,20.20
2022-10-08T12:03:18.625Z,20.41
2022-10-08T12:05:50.936Z,20.51
2022-10-08T12:08:48.650Z,20.34
2022-10-08T12:11:37.528Z,20.26
2022-10-08T12:14:13.405Z,20.43
2022-10-08T12:16:49.344Z,20.70
2022-10-08T12:19:34.877Z,20.37
2022-10-08T12:22:03.038Z,20.07
2022-10-08T12:24:38.515Z,20.17
2022-10-08T12:27:17.251Z,20.37
2022-10-08T12:30:16.678Z,20.55
2022-10-08T12:32:43.422Z,20.67
2022-10-08T12:35:38.026Z,20.82
2022-10-08T12:38:07.613Z,20.72
2022-10-08T12:40:40.845Z,20.79
2022-10-08T12:43:32.526Z,20.82
2022-10-08T12:46:20.941Z,20.70
2022-10-08T12:49:26.586Z,20.82
2022-10-08T12:52:15.837Z,20.83
2022-10-08T12:54:57.374Z,20.73
2022-10-08T12:57:37.805Z,20.64
2022-10-08T13:00:09.225Z,20.80
2022-10-08T13:02:43.547Z,20.80
2022-10-08T13:05:34.047Z,20.93
2022-10-08T13:08:20.712Z,20.96
2022-10-08T13:10:47.362Z,20.83
2022-10-08T13:13:35.648Z,20.62
2022-10-08T13:16:04.305Z,20.17
2022-10-08T13:18:33.140Z,20.05
2022-10-08T13:21:02.189Z,19.69
2022-10-08T13:23:40.483Z,19.61
2022-10-08T13:26:43.767Z,20.05
2022-10-08T13:29:28.316Z,19.99
2022-10-08T13:32:05.639Z,19.98
2022-10-08T13:34:43.501Z,19.92
2022-10-08T13:37:21.682Z,19.95
2022-10-08T13:40:13.177Z,20.17
2022-10-08T13:42:42.891Z,20.21
2022-10-08T13:45:24.747Z,20.04
2022-10-08T13:47:51.727Z,20.37
2022-10-08T13:50:20.079Z,20.28
2022-10-08T13:52:53.732Z,19.93
2022-10-08T13:55:32.935Z,19.97
2022-10-08T13:58:04.496Z,20.19
2022-10-08T14:00:33.533Z,20.16
2022-10-08T14:03:00.145Z,20.08
2022-10-08T14:05:32.981Z,20.43
2022-10-08T14:08:04.130Z,20.37
2022-10-08T14:10:31.217Z,20.55
2022-10-08T14:12:57.967Z,20.53
2022-10-08T14:15:24.728Z,20.48
2022-10-08T14:17:53.364Z,20.56
2022-10-08T14:20:20.062Z,20.59
2022-10-08T14:22:46.674Z,20.55
2022-10-08T14:25:19.389Z,20.41
2022-10-08T14:27:47.000Z,20.47
2022-10-08T14:30:15.195Z,20.37
2022-10-08T14:32:42.444Z,20.31
2022-10-08T14:35:09.827Z,20.29
2022-10-08T14:37:37.059Z,20.29
2022-10-08T14:40:06.909Z,20.29
2022-10-08T14:42:33.459Z,20.10
2022-10-08T14:45:01.130Z,20.10
2022-10-08T14:47:27.664Z,19.98
2022-10-08T14:49:54.754Z,20.01
2022-10-08T14:52:21.361Z,19.98
2022-10-08T14:54:47.990Z,19.92
2022-10-08T14:57:14.634Z,19.77
2022-10-08T14:59:41.380Z,19.79
2022-10-08T15:02:12.030Z,19.74
2022-10-08T15:04:39.066Z,19.72
2022-10-08T15:07:06.041Z,19.70
2022-10-08T15:09:32.797Z,19.62
2022-10-08T15:11:59.358Z,19.54
2022-10-08T15:14:25.994Z,19.52
2022-10-08T15:16:52.769Z,19.40
2022-10-08T15:19:23.853Z,19.17
2022-10-08T15:21:50.990Z,19.24
2022-10-08T15:24:17.739Z,19.12
2022-10-08T15:26:44.366Z,19.66
2022-10-08T15:29:11.005Z,19.18
2022-10-08T15:31:37.628Z,18.99
2022-10-08T15:34:04.281Z,18.93
2022-10-08T15:36:37.063Z,18.82
2022-10-08T15:39:13.496Z,18.66
2022-10-08T15:41:42.360Z,18.67
2022-10-08T15:44:19.244Z,18.54
2022-10-08T15:46:47.010Z,18.54
2022-10-08T15:49:13.895Z,18.47
2022-10-08T15:51:40.841Z,18.45
2022-10-08T15:54:08.263Z,18.39
2022-10-08T15:56:35.507Z,18.33
2022-10-08T15:59:02.716Z,18.33
2022-10-08T16:01:29.837Z,18.29
2022-10-08T16:03:58.140Z,18.25
2022-10-08T16:06:33.050Z,18.19
2022-10-08T16:09:08.837Z,18.12
2022-10-08T16:11:35.592Z,18.18
2022-10-08T16:14:06.252Z,18.11
2022-10-08T16:16:33.177Z,18.13
2022-10-08T16:19:02.045Z,18.17
2022-10-08T16:21:30.518Z,17.99
2022-10-08T16:23:57.957Z,17.92
2022-10-08T16:26:25.592Z,17.93
2022-10-08T16:28:57.517Z,17.73
2022-10-08T16:31:26.190Z,17.74
2022-10-08T16:34:01.020Z,17.02
2022-10-08T16:36:29.823Z,17.18
2022-10-08T16:38:56.610Z,17.00
2022-10-08T16:41:25.912Z,17.01
2022-10-08T16:43:57.909Z,17.21
2022-10-08T16:46:30.101Z,17.43
2022-10-08T16:49:02.111Z,17.73
2022-10-08T16:51:31.536Z,17.42
2022-10-08T16:54:00.016Z,17.08
2022-10-08T16:56:29.893Z,17.23
2022-10-08T16:58:58.841Z,17.14
2022-10-08T17:01:26.077Z,17.18
2022-10-08T17:03:53.634Z,17.17
2022-10-08T17:06:22.455Z,17.19
2022-10-08T17:08:50.279Z,17.22
2022-10-08T17:11:17.351Z,17.25
2022-10-08T17:13:49.168Z,17.37
2022-10-08T17:16:18.057Z,17.12
2022-10-08T17:18:45.322Z,17.11
2022-10-08T17:21:13.253Z,17.13
2022-10-08T17:23:40.346Z,16.99
2022-10-08T17:26:11.602Z,17.00
2022-10-08T17:28:41.072Z,16.96
2022-10-08T17:31:10.828Z,16.98
2022-10-08T17:33:37.718Z,17.02
2022-10-08T17:36:16.995Z,17.00
2022-10-08T17:38:45.336Z,17.02
2022-10-08T17:41:29.131Z,17.00
2022-10-08T17:43:56.913Z,17.05
2022-10-08T17:46:26.738Z,16.99
2022-10-08T17:51:58.487Z,17.02
2022-10-08T17:54:25.062Z,17.06
2022-10-08T17:56:54.517Z,17.04
2022-10-08T17:59:24.193Z,17.05
2022-10-08T18:01:51.029Z,17.00
2022-10-08T18:04:19.611Z,16.95
2022-10-08T18:06:47.777Z,16.88
2022-10-08T18:09:18.381Z,16.73
2022-10-08T18:11:47.508Z,16.87
2022-10-08T18:14:14.253Z,16.87
2022-10-08T18:16:44.270Z,16.90
2022-10-08T18:19:13.664Z,16.84
2022-10-08T18:21:40.284Z,16.82
2022-10-08T18:24:06.883Z,16.83
2022-10-08T18:26:39.338Z,16.83
2022-10-08T18:29:09.278Z,16.78
2022-10-08T18:31:38.211Z,16.58
2022-10-08T18:34:08.017Z,16.63
2022-10-08T18:36:37.243Z,16.63
2022-10-08T18:39:27.543Z,16.55
2022-10-08T18:41:57.676Z,16.55
2022-10-08T18:44:25.725Z,16.56
2022-10-08T18:46:52.909Z,16.53
2022-10-08T18:49:28.974Z,16.49
2022-10-08T18:51:56.851Z,16.46
2022-10-08T18:54:24.370Z,16.40
2022-10-08T18:56:50.988Z,16.50
2022-10-08T18:59:17.833Z,16.51
2022-10-08T19:01:47.311Z,16.53
2022-10-08T19:04:20.191Z,16.46
2022-10-08T19:06:48.736Z,16.49
2022-10-08T19:09:24.093Z,16.53
2022-10-08T19:11:53.748Z,16.52
2022-10-08T19:14:29.219Z,16.46
2022-10-08T19:16:55.821Z,16.52
2022-10-08T19:19:25.260Z,16.46
2022-10-08T19:21:54.359Z,16.44
2022-10-08T19:24:23.206Z,16.49
2022-10-08T19:26:51.010Z,16.47
2022-10-08T19:29:29.103Z,16.44
2022-10-08T19:31:56.406Z,16.49
2022-10-08T19:34:24.889Z,16.49
2022-10-08T19:36:52.252Z,16.47
2022-10-08T19:39:24.595Z,16.41
2022-10-08T19:41:51.404Z,16.50
2022-10-08T19:44:18.884Z,16.53
2022-10-08T19:46:45.794Z,16.44
2022-10-08T19:49:12.990Z,16.47
2022-10-08T19:51:40.238Z,16.50
2022-10-08T19:54:07.103Z,16.46
2022-10-08T19:56:33.809Z,16.42
2022-10-08T19:59:00.426Z,16.32
2022-10-08T20:01:30.215Z,16.36
2022-10-08T20:03:58.997Z,16.33
2022-10-08T20:06:28.671Z,16.26
2022-10-08T20:09:10.122Z,16.20
2022-10-08T20:11:43.259Z,16.19
2022-10-08T20:14:10.445Z,16.22
2022-10-08T20:16:39.963Z,16.27
2022-10-08T20:19:12.037Z,16.21
2022-10-08T20:21:38.686Z,16.23
2022-10-08T20:24:06.384Z,16.27
2022-10-08T20:26:38.907Z,16.19
2022-10-08T20:29:08.326Z,16.30
2022-10-08T20:31:37.111Z,16.29
2022-10-08T20:34:11.568Z,16.19
2022-10-08T20:36:38.607Z,16.25
2022-10-08T20:39:05.808Z,16.26
2022-10-08T20:41:32.504Z,16.16
2022-10-08T20:44:02.364Z,16.11
2022-10-08T20:46:29.543Z,16.14
2022-10-08T20:48:56.207Z,16.03
2022-10-08T20:51:25.998Z,16.01
2022-10-08T20:53:57.756Z,16.07
2022-10-08T20:56:25.343Z,16.04
2022-10-08T20:58:52.607Z,16.14
2022-10-08T21:01:21.657Z,16.14
2022-10-08T21:03:48.372Z,16.16
2022-10-08T21:06:23.880Z,16.06
2022-10-08T21:08:53.103Z,16.13
2022-10-08T21:11:22.394Z,16.15
2022-10-08T21:13:49.282Z,16.08
2022-10-08T21:16:19.001Z,16.07
2022-10-08T21:18:50.235Z,15.98
2022-10-08T21:21:17.604Z,15.88
2022-10-08T21:23:44.682Z,15.69
2022-10-08T21:26:17.976Z,15.58
2022-10-08T21:28:46.850Z,15.62
2022-10-08T21:31:14.420Z,15.49
2022-10-08T21:33:46.465Z,15.47
2022-10-08T21:36:22.367Z,15.46
2022-10-08T21:38:49.401Z,15.38
2022-10-08T21:41:17.926Z,15.34
2022-10-08T21:43:56.798Z,15.22
2022-10-08T21:46:26.326Z,15.37
2022-10-08T21:48:55.109Z,15.27
2022-10-08T21:51:22.310Z,15.37
2022-10-08T21:53:52.092Z,15.41
2022-10-08T21:56:22.797Z,15.30
2022-10-08T21:58:52.513Z,15.41
2022-10-08T22:01:27.146Z,15.47
2022-10-08T22:03:55.481Z,15.44
2022-10-08T22:06:22.937Z,15.34
2022-10-08T22:08:49.925Z,15.45
2022-10-08T22:11:16.882Z,15.51
2022-10-08T22:13:43.928Z,15.51
2022-10-08T22:16:12.882Z,15.45
2022-10-08T22:18:39.941Z,15.40
2022-10-08T22:21:10.983Z,15.35
2022-10-08T22:23:37.801Z,15.25
2022-10-08T22:26:11.117Z,15.33
2022-10-08T22:28:39.082Z,15.45
2022-10-08T22:31:07.933Z,15.39
2022-10-08T22:33:35.330Z,15.52
2022-10-08T22:36:07.701Z,15.52
2022-10-08T22:38:36.751Z,15.39
2022-10-08T22:41:12.012Z,15.26
2022-10-08T22:43:40.164Z,15.21
2022-10-08T22:46:10.049Z,15.33
2022-10-08T22:48:37.455Z,15.32
2022-10-08T22:51:07.782Z,15.23
2022-10-08T22:53:35.096Z,15.27
2022-10-08T22:56:10.481Z,15.21
2022-10-08T22:58:37.046Z,15.02
2022-10-08T23:01:08.808Z,15.03
2022-10-08T23:03:36.506Z,15.09
2022-10-08T23:06:04.547Z,15.10
2022-10-08T23:08:31.595Z,15.09
2022-10-08T23:10:58.594Z,15.05
2022-10-08T23:13:25.727Z,15.07
2022-10-08T23:16:06.573Z,15.03
2022-10-08T23:18:36.332Z,15.00
2022-10-08T23:21:09.429Z,14.83
2022-10-08T23:23:36.327Z,14.96
2022-10-08T23:26:05.458Z,14.90
2022-10-08T23:28:34.055Z,14.77
2022-10-08T23:31:08.740Z,14.79
2022-10-08T23:33:38.269Z,14.73
2022-10-08T23:36:19.826Z,14.70
2022-10-08T23:38:46.865Z,14.80
2022-10-08T23:41:13.558Z,14.75
2022-10-08T23:43:43.033Z,14.77
2022-10-08T23:46:12.213Z,14.90
2022-10-08T23:48:39.604Z,14.92
2022-10-08T23:51:07.042Z,14.87
2022-10-08T23:53:34.751Z,14.79
2022-10-08T23:56:01.820Z,14.75
2022-10-08T23:58:28.424Z,14.87
